createdAt,value
2022-08-26T00:02:19.393Z,99645.66
2022-08-26T00:04:50.904Z,99651.81
2022-08-26T00:07:20.733Z,99652.78
2022-08-26T00:09:50.279Z,99653.72
2022-08-26T00:12:31.532Z,99658.19
2022-08-26T00:15:09.787Z,99648.50
2022-08-26T00:17:40.348Z,99656.50
2022-08-26T00:20:21.089Z,99659.19
2022-08-26T00:22:49.863Z,99657.44
2022-08-26T00:25:19.472Z,99653.97
2022-08-26T00:27:49.193Z,99657.53
2022-08-26T00:30:22.723Z,99656.66
2022-08-26T00:32:52.925Z,99659.34
2022-08-26T00:35:23.852Z,99654.06
2022-08-26T00:37:52.580Z,99654.13
2022-08-26T00:40:26.077Z,99664.75
2022-08-26T00:42:55.437Z,99651.53
2022-08-26T00:45:25.012Z,99665.72
2022-08-26T00:47:59.278Z,99667.56
2022-08-26T00:50:36.899Z,99667.56
2022-08-26T00:53:24.110Z,99667.56
2022-08-26T00:56:01.074Z,99682.69
2022-08-26T00:58:34.027Z,99690.78
2022-08-26T01:01:03.487Z,99682.94
2022-08-26T01:03:35.532Z,99685.66
2022-08-26T01:06:11.464Z,99695.47
2022-08-26T01:08:42.287Z,99686.69
2022-08-26T01:11:13.225Z,99692.06
2022-08-26T01:13:43.515Z,99693.03
2022-08-26T01:16:15.966Z,99690.41
2022-08-26T01:18:47.790Z,99689.59
2022-08-26T01:21:28.302Z,99694.13
2022-08-26T01:24:01.015Z,99695.06
2022-08-26T01:26:34.578Z,99701.34
2022-08-26T01:29:08.629Z,99697.81
2022-08-26T01:31:43.638Z,99697.88
2022-08-26T01:34:18.547Z,99690.81
2022-08-26T01:36:51.938Z,99690.84
2022-08-26T01:39:22.347Z,99700.63
2022-08-26T01:41:56.853Z,99692.75
2022-08-26T01:44:31.567Z,99701.63
2022-08-26T01:47:02.518Z,99705.19
2022-08-26T01:49:34.791Z,99704.28
2022-08-26T01:52:05.979Z,99707.88
2022-08-26T01:54:37.405Z,99696.38
2022-08-26T01:57:07.844Z,99705.28
2022-08-26T01:59:37.126Z,99707.97
2022-08-26T02:02:06.401Z,99709.81
2022-08-26T02:04:39.453Z,99707.16
2022-08-26T02:07:11.084Z,99706.31
2022-08-26T02:09:43.726Z,99709.84
2022-08-26T02:12:16.398Z,99714.34
2022-08-26T02:14:52.213Z,99721.44
2022-08-26T02:17:26.032Z,99725.00
2022-08-26T02:19:55.513Z,99725.06
2022-08-26T02:22:25.464Z,99724.22
2022-08-26T02:24:59.203Z,99723.38
2022-08-26T02:27:32.798Z,99730.53
2022-08-26T02:30:10.015Z,99723.47
2022-08-26T02:32:40.191Z,99717.38
2022-08-26T02:35:12.890Z,99729.75
2022-08-26T02:37:43.148Z,99720.03
2022-08-26T02:40:16.539Z,99728.03
2022-08-26T02:42:45.381Z,99724.59
2022-08-26T02:45:14.290Z,99719.31
2022-08-26T02:47:52.703Z,99730.91
2022-08-26T02:50:22.765Z,99732.72
2022-08-26T02:52:51.551Z,99723.94
2022-08-26T02:55:21.928Z,99738.13
2022-08-26T02:57:53.642Z,99732.91
2022-08-26T03:00:22.796Z,99727.66
2022-08-26T03:02:52.961Z,99725.97
2022-08-26T03:05:24.859Z,99715.44
2022-08-26T03:07:53.957Z,99712.78
2022-08-26T03:10:24.642Z,99717.28
2022-08-26T03:12:55.478Z,99726.19
2022-08-26T03:15:25.285Z,99726.19
2022-08-26T03:17:54.430Z,99726.25
2022-08-26T03:20:26.639Z,99730.72
2022-08-26T03:22:56.887Z,99737.00
2022-08-26T03:25:27.784Z,99733.47
2022-08-26T03:27:57.579Z,99745.03
2022-08-26T03:30:45.425Z,99745.97
2022-08-26T03:33:16.626Z,99735.44
2022-08-26T03:35:50.485Z,99738.13
2022-08-26T03:38:20.794Z,99733.72
2022-08-26T03:40:51.699Z,99740.84
2022-08-26T03:43:22.401Z,99735.56
2022-08-26T03:45:51.648Z,99738.25
2022-08-26T03:48:21.486Z,99734.78
2022-08-26T03:50:50.469Z,99733.91
2022-08-26T03:53:20.643Z,99737.53
2022-08-26T03:55:52.007Z,99742.84
2022-08-26T03:58:21.965Z,99741.19
2022-08-26T04:00:55.653Z,99742.94
2022-08-26T04:03:39.221Z,99748.28
2022-08-26T04:06:09.158Z,99743.00
2022-08-26T04:08:39.095Z,99761.59
2022-08-26T04:11:09.450Z,99758.94
2022-08-26T04:13:39.292Z,99758.06
2022-08-26T04:16:08.900Z,99760.78
2022-08-26T04:18:42.095Z,99763.44
2022-08-26T04:21:16.157Z,99761.69
2022-08-26T04:23:47.633Z,99759.94
2022-08-26T04:26:20.012Z,99760.88
2022-08-26T04:28:49.603Z,99752.94
2022-08-26T04:31:20.295Z,99753.84
2022-08-26T04:33:50.999Z,99756.56
2022-08-26T04:36:20.464Z,99757.47
2022-08-26T04:38:50.738Z,99769.81
2022-08-26T04:41:22.365Z,99767.19
2022-08-26T04:43:51.524Z,99767.25
2022-08-26T04:46:24.493Z,99769.03
2022-08-26T04:48:55.192Z,99765.53
2022-08-26T04:51:28.156Z,99767.34
2022-08-26T04:53:57.654Z,99772.69
2022-08-26T04:56:29.960Z,99770.91
2022-08-26T04:58:58.776Z,99782.47
2022-08-26T05:01:30.431Z,99783.38
2022-08-26T05:04:00.130Z,99781.63
2022-08-26T05:06:36.882Z,99787.84
2022-08-26T05:09:06.604Z,99789.63
2022-08-26T05:11:37.344Z,99783.47
2022-08-26T05:14:06.941Z,99785.28
2022-08-26T05:16:36.461Z,99780.91
2022-08-26T05:19:13.832Z,99780.91
2022-08-26T05:22:08.475Z,99782.72
2022-08-26T05:24:55.872Z,99787.22
2022-08-26T05:27:39.310Z,99781.97
2022-08-26T05:30:40.541Z,99787.31
2022-08-26T05:33:28.264Z,99787.38
2022-08-26T05:36:17.723Z,99790.03
2022-08-26T05:39:15.294Z,99794.44
2022-08-26T05:42:20.715Z,99794.50
2022-08-26T05:48:29.592Z,99804.25
2022-08-26T05:51:13.610Z,99803.38
2022-08-26T05:53:54.553Z,99801.63
2022-08-26T05:56:45.872Z,99806.03
2022-08-26T05:59:39.948Z,99805.13
2022-08-26T06:02:33.843Z,99814.84
2022-08-26T06:05:15.399Z,99800.78
2022-08-26T06:08:20.271Z,99805.19
2022-08-26T06:11:26.054Z,99797.28
2022-08-26T06:14:29.272Z,99801.69
2022-08-26T06:17:47.570Z,99799.97
2022-08-26T06:20:26.874Z,99802.66
2022-08-26T06:23:18.138Z,99805.28
2022-08-26T06:25:49.232Z,99800.88
2022-08-26T06:28:21.755Z,99807.94
2022-08-26T06:31:06.227Z,99809.75
2022-08-26T06:33:55.977Z,99812.44
2022-08-26T06:37:17.362Z,99814.31
2022-08-26T06:40:25.248Z,99821.34
2022-08-26T06:43:23.099Z,99818.69
2022-08-26T06:50:40.528Z,99828.44
2022-08-26T06:54:21.869Z,99833.75
2022-08-26T07:05:14.287Z,99840.91
2022-08-26T07:07:58.331Z,99839.16
2022-08-26T07:11:01.969Z,99840.91
2022-08-26T07:24:01.445Z,99842.75
2022-08-26T07:28:02.877Z,99839.28
2022-08-26T07:31:23.107Z,99842.81
2022-08-26T07:35:05.008Z,99841.88
2022-08-26T07:38:32.442Z,99844.50
2022-08-26T07:41:47.816Z,99847.09
2022-08-26T07:45:00.019Z,99851.50
2022-08-26T07:50:50.098Z,99867.38
2022-08-26T07:53:54.324Z,99866.50
2022-08-26T08:00:36.911Z,99870.97
2022-08-26T08:04:05.350Z,99874.53
2022-08-26T08:07:16.265Z,99878.94
2022-08-26T08:20:12.345Z,99886.78
2022-08-26T08:23:32.394Z,99885.91
2022-08-26T08:27:41.612Z,99887.69
2022-08-26T08:30:35.086Z,99891.22
2022-08-26T08:33:27.012Z,99900.91
2022-08-26T08:40:21.262Z,99900.03
2022-08-26T08:47:54.602Z,99902.63
2022-08-26T08:51:28.224Z,99892.94
2022-08-26T08:54:48.660Z,99891.19
2022-08-26T09:05:53.537Z,99895.69
2022-08-26T09:09:41.968Z,99900.16
2022-08-26T10:02:47.742Z,99897.44
2022-08-26T10:05:39.847Z,99902.69
2022-08-26T10:08:25.911Z,99891.19
2022-08-26T10:11:02.861Z,99893.81
2022-08-26T10:13:48.171Z,99890.28
2022-08-26T10:16:35.379Z,99889.44
2022-08-26T10:19:19.638Z,99892.09
2022-08-26T10:22:04.962Z,99899.09
2022-08-26T10:25:08.038Z,99890.25
2022-08-26T10:27:51.163Z,99895.56
2022-08-26T10:30:35.941Z,99891.13
2022-08-26T10:33:18.145Z,99894.63
2022-08-26T10:36:15.286Z,99893.78
2022-08-26T10:38:51.697Z,99885.81
2022-08-26T10:41:30.588Z,99889.28
2022-08-26T10:44:06.659Z,99883.03
2022-08-26T10:46:42.481Z,99885.63
2022-08-26T10:49:28.033Z,99883.84
2022-08-26T10:52:19.698Z,99888.28
2022-08-26T10:55:03.116Z,99881.25
2022-08-26T10:57:50.201Z,99872.44
2022-08-26T11:00:43.987Z,99886.50
2022-08-26T11:03:36.420Z,99881.22
2022-08-26T11:06:29.126Z,99883.03
2022-08-26T11:09:15.900Z,99887.47
2022-08-26T11:11:53.761Z,99882.16
2022-08-26T11:14:56.224Z,99884.81
2022-08-26T11:18:06.616Z,99889.22
2022-08-26T11:20:55.074Z,99882.16
2022-08-26T11:23:52.956Z,99886.56
2022-08-26T11:26:56.173Z,99889.16
2022-08-26T11:30:19.555Z,99891.84
2022-08-26T11:33:35.169Z,99892.75
2022-08-26T11:36:48.768Z,99881.34
2022-08-26T11:39:55.033Z,99883.09
2022-08-26T11:43:32.166Z,99881.34
2022-08-26T11:46:37.548Z,99876.00
2022-08-26T11:52:53.370Z,99884.78
2022-08-26T11:55:47.744Z,99874.19
2022-08-26T11:58:38.963Z,99883.84
2022-08-26T12:01:44.682Z,99883.78
2022-08-26T12:04:32.421Z,99875.84
2022-08-26T12:07:13.497Z,99880.25
2022-08-26T12:13:11.058Z,99874.09
2022-08-26T12:16:12.666Z,99874.97
2022-08-26T12:19:06.618Z,99870.59
2022-08-26T12:21:58.781Z,99862.59
2022-08-26T12:24:38.716Z,99865.22
2022-08-26T12:27:28.867Z,99857.22
2022-08-26T12:30:29.272Z,99856.31
2022-08-26T12:37:13.114Z,99863.34
2022-08-26T12:40:55.748Z,99859.81
2022-08-26T12:44:39.074Z,99851.84
2022-08-26T12:53:00.750Z,99858.09
2022-08-26T13:02:22.092Z,99855.50
2022-08-26T13:11:11.397Z,99842.34
2022-08-26T13:15:05.609Z,99845.81
2022-08-26T13:18:23.573Z,99842.22
2022-08-26T13:22:03.634Z,99840.44
2022-08-26T13:29:20.195Z,99840.50
2022-08-26T13:33:22.057Z,99840.50
2022-08-26T13:40:06.261Z,99840.50
2022-08-26T13:42:50.095Z,99847.56
2022-08-26T13:45:26.296Z,99844.03
2022-08-26T13:48:04.071Z,99849.34
2022-08-26T13:50:55.375Z,99843.19
2022-08-26T13:53:56.510Z,99841.47
2022-08-26T13:56:37.759Z,99852.94
2022-08-26T13:59:18.153Z,99845.00
2022-08-26T14:01:56.205Z,99838.75
2022-08-26T14:04:59.101Z,99836.09
2022-08-26T14:11:09.992Z,99832.56
2022-08-26T14:15:03.858Z,99835.25
2022-08-26T14:25:27.225Z,99842.34
2022-08-26T14:29:12.375Z,99852.06
2022-08-26T14:33:03.596Z,99850.38
2022-08-26T14:36:19.650Z,99861.88
2022-08-26T14:39:46.635Z,99846.94
2022-08-26T14:43:27.181Z,99850.50
2022-08-26T14:46:30.944Z,99852.25
2022-08-26T14:50:00.751Z,99855.81
2022-08-26T14:53:19.081Z,99849.63
2022-08-26T14:56:29.461Z,99851.41
2022-08-26T14:59:36.042Z,99848.75
2022-08-26T15:03:22.505Z,99845.22
2022-08-26T15:07:34.041Z,99836.44
2022-08-26T15:11:04.497Z,99847.91
2022-08-26T15:18:06.709Z,99832.97
2022-08-26T15:27:51.636Z,99832.97
2022-08-26T15:31:39.056Z,99835.63
2022-08-26T15:34:59.429Z,99836.56
2022-08-26T15:38:06.680Z,99833.06
2022-08-26T15:41:29.748Z,99828.66
2022-08-26T15:44:22.100Z,99823.34
2022-08-26T15:48:00.648Z,99822.47
2022-08-26T15:51:26.147Z,99815.47
2022-08-26T15:57:55.133Z,99828.72
2022-08-26T16:01:27.715Z,99835.81
2022-08-26T16:04:54.140Z,99828.81
2022-08-26T16:08:44.058Z,99835.94
2022-08-26T16:11:56.111Z,99831.56
2022-08-26T16:19:10.368Z,99841.34
2022-08-26T16:25:25.856Z,99846.66
2022-08-26T16:28:14.255Z,99845.72
2022-08-26T16:31:40.331Z,99846.66
2022-08-26T16:34:23.123Z,99844.03
2022-08-26T16:37:19.870Z,99836.97
2022-08-26T16:40:37.562Z,99851.97
2022-08-26T16:43:34.707Z,99854.69
2022-08-26T16:47:05.258Z,99853.78
2022-08-26T16:50:05.218Z,99867.03
2022-08-26T16:53:03.679Z,99866.13
2022-08-26T16:55:51.870Z,99868.84
2022-08-26T16:59:17.498Z,99875.00
2022-08-26T17:01:58.466Z,99874.13
2022-08-26T17:04:40.063Z,99868.88
2022-08-26T17:07:20.601Z,99876.78
2022-08-26T17:10:03.978Z,99877.69
2022-08-26T17:12:51.792Z,99875.94
2022-08-26T17:15:43.229Z,99881.22
2022-08-26T17:21:34.374Z,99890.94
2022-08-26T17:24:43.434Z,99892.69
2022-08-26T17:27:36.928Z,99897.97
2022-08-26T17:30:41.613Z,99899.75
2022-08-26T17:33:53.206Z,99898.03
2022-08-26T17:36:41.514Z,99898.06
2022-08-26T17:39:24.791Z,99910.47
2022-08-26T17:42:06.374Z,99899.88
2022-08-26T17:44:55.611Z,99898.13
2022-08-26T17:47:37.603Z,99898.13
2022-08-26T17:53:30.217Z,99897.25
2022-08-26T17:56:17.567Z,99893.72
2022-08-26T17:58:57.799Z,99890.19
2022-08-26T18:02:08.577Z,99897.19
2022-08-26T18:04:50.575Z,99897.19
2022-08-26T18:07:21.943Z,99902.44
2022-08-26T18:09:55.473Z,99902.44
2022-08-26T18:12:43.567Z,99901.50
2022-08-26T18:15:30.090Z,99897.09
2022-08-26T18:18:44.849Z,99890.09
2022-08-26T18:22:01.297Z,99897.16
2022-08-26T18:25:27.436Z,99891.88
2022-08-26T18:28:44.127Z,99896.31
2022-08-26T18:31:59.665Z,99901.59
2022-08-26T18:38:50.387Z,99891.94
2022-08-26T18:45:21.589Z,99895.44
2022-08-26T18:48:40.080Z,99888.38
2022-08-26T18:51:59.054Z,99896.31
2022-08-26T18:55:01.858Z,99894.56
2022-08-26T18:58:02.711Z,99899.88
2022-08-26T19:01:09.954Z,99899.88
2022-08-26T19:04:15.876Z,99900.75
2022-08-26T19:07:01.337Z,99900.78
2022-08-26T19:09:42.211Z,99906.06
2022-08-26T19:12:51.979Z,99915.78
2022-08-26T19:22:59.658Z,99921.16
2022-08-26T19:25:40.322Z,99917.66
2022-08-26T19:28:16.899Z,99915.88
2022-08-26T19:31:29.128Z,99915.88
2022-08-26T19:38:23.311Z,99920.31
2022-08-26T20:27:37.687Z,99932.91
2022-08-26T20:30:57.060Z,99937.31
2022-08-26T20:41:15.980Z,99952.28
2022-08-26T20:43:50.899Z,99957.56
2022-08-26T20:46:24.855Z,99959.34
2022-08-26T20:48:58.333Z,99950.53
2022-08-26T20:51:41.277Z,99954.06
2022-08-26T20:57:32.010Z,99946.16
2022-08-26T21:00:22.995Z,99953.19
2022-08-26T21:03:05.141Z,99952.34
2022-08-26T21:11:41.025Z,99956.78
2022-08-26T21:17:34.127Z,99963.81
2022-08-26T21:20:22.285Z,99973.50
2022-08-26T21:22:55.440Z,99973.50
2022-08-26T21:25:30.473Z,99974.38
2022-08-26T21:28:03.304Z,99971.75
2022-08-26T21:33:26.639Z,99977.03
2022-08-26T21:36:09.623Z,99984.06
2022-08-26T21:38:46.259Z,99978.78
2022-08-26T21:41:24.046Z,99980.53
2022-08-26T21:43:59.556Z,99983.19
2022-08-26T21:46:31.914Z,99981.41
2022-08-26T21:52:02.779Z,99993.75
2022-08-26T21:54:33.934Z,99988.50
2022-08-26T21:57:22.255Z,100000.78
2022-08-26T21:59:54.514Z,99988.50
2022-08-26T22:02:25.371Z,99988.47
2022-08-26T22:08:01.063Z,99985.88
2022-08-26T22:10:32.943Z,99981.44
2022-08-26T22:13:08.683Z,99990.22
